Time;durP1;ratioP1;P1;durP2;ratioP2;P2;SDS_P1;SDS_P2;PMS_P1;PMS_P2;Temp;Humidity;BMP_temperature;BMP_pressure;BME280_temperature;BME280_humidity;BME280_pressure;Samples;Min_cycle;Max_cycle;Signal;HPM_P1;HPM_P2
2022/07/29 00:00:09;;;;;;;9.43;7.15;;;;;;;16.24;100.00;95895.09;1030211;28;20022;-68
2022/07/29 00:00:39;;;;;;;10.45;7.95;;;;;;;16.25;100.00;95883.41;1026403;28;20022;-66
2022/07/29 00:01:14;;;;;;;13.90;9.00;;;;;;;16.25;100.00;95886.06;1025788;28;20031;-66
2022/07/29 00:01:45;;;;;;;10.00;7.45;;;;;;;16.25;100.00;95879.97;1023199;28;20106;-67
2022/07/29 00:02:15;;;;;;;7.30;6.25;;;;;;;16.25;100.00;95875.47;1023627;28;20027;-66
2022/07/29 00:02:46;;;;;;;11.98;8.15;;;;;;;16.29;100.00;95866.94;1023984;28;20043;-67
2022/07/29 00:03:16;;;;;;;9.70;7.90;;;;;;;16.29;100.00;95872.22;1019611;28;20115;-66
2022/07/29 00:03:47;;;;;;;10.98;8.18;;;;;;;16.32;100.00;95869.00;1026443;28;20114;-66
2022/07/29 00:04:17;;;;;;;9.40;8.38;;;;;;;16.33;100.00;95871.38;1022245;28;20027;-67
2022/07/29 00:04:48;;;;;;;11.90;8.25;;;;;;;16.32;100.00;95863.69;1026554;28;20078;-66
2022/07/29 00:05:18;;;;;;;10.88;8.52;;;;;;;16.30;100.00;95860.56;1030330;28;20022;-66
2022/07/29 00:05:49;;;;;;;13.15;8.75;;;;;;;16.34;100.00;95853.59;1030579;28;20054;-66
2022/07/29 00:06:20;;;;;;;9.90;8.77;;;;;;;16.32;100.00;95858.41;1030234;28;20054;-66
2022/07/29 00:06:51;;;;;;;15.35;8.60;;;;;;;16.32;100.00;95851.25;1030884;28;20432;-67
2022/07/29 00:07:21;;;;;;;13.52;8.73;;;;;;;16.34;100.00;95853.59;1030491;28;20126;-66
2022/07/29 00:07:52;;;;;;;10.18;8.43;;;;;;;16.34;100.00;95846.44;1030603;28;20045;-67
2022/07/29 00:08:22;;;;;;;13.93;8.38;;;;;;;16.33;100.00;95844.06;1030282;28;20022;-66
2022/07/29 00:08:52;;;;;;;11.20;7.97;;;;;;;16.32;100.00;95840.66;1030393;28;20022;-67
2022/07/29 00:09:23;;;;;;;11.73;7.78;;;;;;;16.32;100.00;95842.50;1030747;28;20690;-66
2022/07/29 00:09:53;;;;;;;11.57;8.45;;;;;;;16.30;100.00;95837.53;1034444;28;20053;-66
2022/07/29 00:10:24;;;;;;;9.98;8.32;;;;;;;16.32;100.00;95838.00;1034373;28;20046;-66
2022/07/29 00:10:54;;;;;;;11.57;8.32;;;;;;;16.29;100.00;95833.28;1034570;28;20030;-66
2022/07/29 00:11:25;;;;;;;9.27;7.28;;;;;;;16.28;100.00;95837.03;1033596;28;20057;-66
2022/07/29 00:11:56;;;;;;;10.50;7.97;;;;;;;16.28;100.00;95831.72;1034502;28;20032;-68
2022/07/29 00:12:27;;;;;;;10.60;7.50;;;;;;;16.28;100.00;95834.38;1030205;28;20022;-66
2022/07/29 00:12:57;;;;;;;8.88;7.57;;;;;;;16.26;100.00;95833.88;1030367;28;20022;-67
2022/07/29 00:13:28;;;;;;;9.80;7.97;;;;;;;16.25;100.00;95825.16;1030528;28;20037;-69
2022/07/29 00:13:58;;;;;;;13.57;9.32;;;;;;;16.25;100.00;95827.81;1030555;28;20396;-68
2022/07/29 00:14:29;;;;;;;10.60;8.23;;;;;;;16.25;100.00;95833.09;1030289;28;20077;-68
2022/07/29 00:14:59;;;;;;;10.15;7.50;;;;;;;16.24;100.00;95831.53;1030401;28;20463;-68
2022/07/29 00:15:30;;;;;;;10.20;8.05;;;;;;;16.25;100.00;95822.50;1026277;28;20026;-66
2022/07/29 00:16:00;;;;;;;11.65;8.23;;;;;;;16.26;100.00;95823.28;1026672;28;20038;-67
2022/07/29 00:16:31;;;;;;;8.70;7.40;;;;;;;16.26;100.00;95821.44;1019396;28;20047;-68
2022/07/29 00:17:01;;;;;;;10.23;8.18;;;;;;;16.27;100.00;95828.31;1018708;28;20059;-68
2022/07/29 00:17:33;;;;;;;11.07;7.85;;;;;;;16.23;100.00;95824.69;1026462;28;20093;-67
2022/07/29 00:18:04;;;;;;;11.35;7.82;;;;;;;16.25;100.00;95822.50;1026604;28;20054;-68
2022/07/29 00:18:34;;;;;;;9.32;7.45;;;;;;;16.26;100.00;95823.28;1026308;28;20166;-69
2022/07/29 00:19:05;;;;;;;10.35;7.47;;;;;;;16.24;100.00;95820.16;1030479;28;20010;-68
2022/07/29 00:19:35;;;;;;;11.73;8.40;;;;;;;16.24;100.00;95818.31;1026431;28;20034;-68
2022/07/29 00:20:06;;;;;;;8.05;7.25;;;;;;;16.17;100.00;95812.63;1026401;28;20035;-66
2022/07/29 00:20:37;;;;;;;9.32;8.30;;;;;;;16.24;100.00;95814.88;1026295;28;20022;-64
2022/07/29 00:21:07;;;;;;;10.15;8.18;;;;;;;16.24;100.00;95812.22;1026581;28;20477;-69
2022/07/29 00:21:38;;;;;;;10.07;8.10;;;;;;;16.23;100.00;95819.41;1026432;28;20150;-68
2022/07/29 00:22:08;;;;;;;12.07;8.02;;;;;;;16.24;100.00;95806.94;1029522;28;20026;-66
2022/07/29 00:22:39;;;;;;;13.00;7.65;;;;;;;16.25;100.00;95806.63;1034383;28;20026;-69
2022/07/29 00:23:09;;;;;;;12.07;8.20;;;;;;;16.27;100.00;95807.13;1034782;28;20033;-67
2022/07/29 00:23:40;;;;;;;12.27;8.10;;;;;;;16.25;100.00;95801.31;1030375;28;20483;-68
2022/07/29 00:24:10;;;;;;;12.75;8.38;;;;;;;16.24;100.00;95789.19;1026677;28;20038;-68
2022/07/29 00:24:41;;;;;;;11.30;7.75;;;;;;;16.21;100.00;95784.47;1026383;28;20022;-70
2022/07/29 00:25:12;;;;;;;15.23;10.10;;;;;;;16.24;100.00;95781.22;1026251;28;20412;-69
2022/07/29 00:25:42;;;;;;;14.60;10.07;;;;;;;16.31;100.00;95783.47;1030985;28;20034;-69
2022/07/29 00:26:12;;;;;;;15.65;10.57;;;;;;;16.29;100.00;95774.25;1030648;28;20062;-68
2022/07/29 00:26:43;;;;;;;12.40;8.82;;;;;;;16.29;100.00;95780.34;1030515;28;20412;-68
2022/07/29 00:27:13;;;;;;;18.40;11.20;;;;;;;16.30;100.00;95781.09;1026639;28;20034;-69
2022/07/29 00:27:45;;;;;;;11.50;8.63;;;;;;;16.33;100.00;95781.31;1026504;28;20098;-69
2022/07/29 00:28:16;;;;;;;14.27;7.95;;;;;;;16.32;100.00;95781.59;1026600;28;20718;-69
2022/07/29 00:28:46;;;;;;;10.85;8.30;;;;;;;16.30;100.00;95778.47;1026564;28;20077;-69
2022/07/29 00:29:17;;;;;;;11.35;8.40;;;;;;;16.32;100.00;95781.59;1026282;28;20650;-68
2022/07/29 00:29:47;;;;;;;12.20;9.02;;;;;;;16.33;100.00;95785.81;1023037;28;20023;-68
2022/07/29 00:30:18;;;;;;;13.55;7.70;;;;;;;16.32;100.00;95785.03;1026330;28;20436;-67
2022/07/29 00:30:48;;;;;;;9.55;7.05;;;;;;;16.30;100.00;95786.41;1026685;28;20038;-69
2022/07/29 00:31:19;;;;;;;12.13;9.15;;;;;;;16.35;100.00;95788.97;1029674;28;20030;-70
2022/07/29 00:31:49;;;;;;;9.50;7.95;;;;;;;16.26;100.00;95776.44;1034180;28;20026;-68
2022/07/29 00:32:20;;;;;;;7.88;6.32;;;;;;;16.32;100.00;95790.34;1026345;28;20030;-69
2022/07/29 00:32:50;;;;;;;8.88;6.53;;;;;;;16.31;100.00;95799.38;1026759;28;20094;-67
2022/07/29 00:33:21;;;;;;;8.18;6.70;;;;;;;16.31;100.00;95799.38;1022291;28;20544;-70
2022/07/29 00:33:52;;;;;;;9.52;6.90;;;;;;;16.32;100.00;95794.84;1023051;28;20030;-69
2022/07/29 00:36:01;;;;;;;9.38;7.28;;;;;;;16.29;100.00;95806.81;1033946;28;20867;-68
2022/07/29 00:36:31;;;;;;;9.93;7.35;;;;;;;16.32;100.00;95810.75;1031245;28;20038;-69
2022/07/29 00:37:02;;;;;;;10.65;8.23;;;;;;;16.31;100.00;95809.19;1030901;28;20556;-68
2022/07/29 00:37:32;;;;;;;9.20;7.18;;;;;;;16.32;100.00;95808.88;1034207;28;20164;-68
2022/07/29 00:38:03;;;;;;;8.48;7.38;;;;;;;16.32;100.00;95810.75;1034521;28;20597;-67
2022/07/29 00:38:33;;;;;;;10.02;7.50;;;;;;;16.25;100.00;95790.75;1034470;28;20080;-68
2022/07/29 00:39:04;;;;;;;8.88;7.40;;;;;;;16.32;100.00;95800.16;1030352;28;20014;-67
2022/07/29 00:39:34;;;;;;;9.88;8.02;;;;;;;16.35;100.00;95812.78;1030461;28;20030;-68
2022/07/29 00:40:05;;;;;;;8.05;6.65;;;;;;;16.33;100.00;95810.47;1030369;28;20674;-68
2022/07/29 00:40:36;;;;;;;9.55;6.95;;;;;;;16.34;100.00;95798.00;1026605;28;20433;-67
2022/07/29 00:41:06;;;;;;;9.52;6.57;;;;;;;16.35;100.00;95804.84;1025680;28;20058;-68
2022/07/29 00:41:37;;;;;;;7.70;6.10;;;;;;;16.32;100.00;95806.22;1025824;28;20035;-67
2022/07/29 00:42:08;;;;;;;10.93;6.18;;;;;;;16.23;100.00;95792.09;1026677;28;20023;-68
2022/07/29 00:42:48;;;;;;;7.28;6.22;;;;;;;16.31;100.00;95807.31;1030153;28;20022;-68
2022/07/29 00:43:18;;;;;;;;;;;;;;;16.32;100.00;95800.16;1031022;28;20106;-68
2022/07/29 00:43:49;;;;;;;9.15;6.00;;;;;;;16.32;100.00;95800.16;1030482;28;20549;-68
2022/07/29 00:44:19;;;;;;;10.38;7.30;;;;;;;16.31;100.00;95802.00;1030163;28;20030;-67
2022/07/29 00:44:50;;;;;;;8.32;7.35;;;;;;;16.34;100.00;95796.13;1030790;28;20766;-68
2022/07/29 00:45:21;;;;;;;7.07;5.60;;;;;;;16.25;100.00;95780.16;1034452;28;20018;-68
2022/07/29 00:45:52;;;;;;;6.95;5.80;;;;;;;16.32;100.00;95789.56;1026172;28;20018;-68
2022/07/29 00:46:22;;;;;;;8.98;6.15;;;;;;;16.33;100.00;95791.13;1026421;28;20015;-67
2022/07/29 00:46:53;;;;;;;7.65;5.47;;;;;;;16.33;100.00;95796.41;1026379;28;20515;-68
2022/07/29 00:47:23;;;;;;;8.18;4.75;;;;;;;16.27;100.00;95799.19;1026558;28;20027;-68
2022/07/29 00:47:54;;;;;;;7.63;5.65;;;;;;;16.28;100.00;95799.97;1030314;28;20018;-67
2022/07/29 00:48:24;;;;;;;7.50;5.70;;;;;;;16.27;100.00;95804.47;1030389;28;20022;-68
2022/07/29 00:48:55;;;;;;;9.13;5.50;;;;;;;16.32;100.00;95802.78;1030565;28;20027;-68
2022/07/29 00:49:25;;;;;;;6.43;5.20;;;;;;;16.30;100.00;95807.59;1030376;28;20022;-68
2022/07/29 00:49:56;;;;;;;8.63;5.57;;;;;;;16.31;100.00;95814.47;1030575;28;20018;-66
2022/07/29 00:50:26;;;;;;;10.52;5.90;;;;;;;16.31;100.00;95803.88;1026569;28;20034;-69
2022/07/29 00:50:57;;;;;;;5.25;4.75;;;;;;;16.29;100.00;95811.31;1030172;28;20042;-71
2022/07/29 00:51:27;;;;;;;6.35;4.88;;;;;;;16.22;100.00;95809.84;1025676;28;20553;-69
2022/07/29 00:52:02;;;;;;;5.95;4.78;;;;;;;16.21;100.00;95808.31;1022327;29;20146;-68
2022/07/29 00:52:37;;;;;;;8.38;5.07;;;;;;;16.21;100.00;95808.31;1022443;29;20934;-68
2022/07/29 00:53:07;;;;;;;4.72;4.20;;;;;;;16.18;100.00;95806.25;1023884;28;20051;-68
2022/07/29 00:53:38;;;;;;;5.35;4.50;;;;;;;16.11;100.00;95799.78;1025090;28;20541;-69
2022/07/29 00:54:08;;;;;;;6.78;5.47;;;;;;;16.08;100.00;95798.50;1026467;28;20022;-68
2022/07/29 00:54:39;;;;;;;9.95;5.57;;;;;;;16.16;100.00;95802.31;1023250;29;20047;-67
2022/07/29 00:55:13;;;;;;;7.57;5.32;;;;;;;16.20;100.00;95809.41;1023488;28;20031;-67
2022/07/29 00:55:43;;;;;;;5.50;5.00;;;;;;;16.19;100.00;95813.09;1027270;28;20453;-68
2022/07/29 00:56:14;;;;;;;6.63;5.57;;;;;;;16.21;100.00;95816.25;1026704;28;20031;-66
2022/07/29 00:56:44;;;;;;;5.43;4.90;;;;;;;16.19;100.00;95807.03;1030478;28;20515;-68
2022/07/29 00:57:15;;;;;;;4.85;4.35;;;;;;;16.17;100.00;95812.63;1026537;28;20023;-66
2022/07/29 00:57:46;;;;;;;6.00;4.95;;;;;;;16.11;100.00;95797.91;1026264;28;20054;-68
2022/07/29 00:58:16;;;;;;;7.03;4.97;;;;;;;16.19;100.00;95813.09;1026207;28;20023;-68
2022/07/29 00:58:47;;;;;;;6.15;5.55;;;;;;;16.19;100.00;95809.66;1026674;28;20023;-68
2022/07/29 00:59:17;;;;;;;7.45;5.30;;;;;;;16.14;100.00;95802.63;1026452;28;20151;-68
2022/07/29 00:59:48;;;;;;;5.78;5.05;;;;;;;16.18;100.00;95811.53;1026666;28;20063;-69
2022/07/29 01:00:20;;;;;;;7.25;5.47;;;;;;;16.13;100.00;95805.56;1026255;28;20424;-68
2022/07/29 01:00:50;;;;;;;10.02;5.75;;;;;;;16.17;100.00;95817.16;1022461;29;20031;-69
2022/07/29 01:01:21;;;;;;;7.43;5.07;;;;;;;16.17;100.00;95812.63;1022092;28;20450;-67
2022/07/29 01:01:51;;;;;;;6.45;5.00;;;;;;;16.12;100.00;95810.06;1022308;28;20027;-68
2022/07/29 01:02:22;;;;;;;9.77;6.43;;;;;;;16.18;100.00;95816.06;1018447;29;20183;-68
2022/07/29 01:02:52;;;;;;;10.45;7.10;;;;;;;16.18;100.00;95814.19;1022312;29;20078;-68
2022/07/29 01:03:23;;;;;;;10.68;6.95;;;;;;;16.18;100.00;95816.84;1022459;28;20027;-67
2022/07/29 01:03:53;;;;;;;10.82;7.72;;;;;;;16.17;100.00;95815.28;1030346;28;20030;-68
2022/07/29 01:04:24;;;;;;;10.02;7.45;;;;;;;16.13;100.00;95808.19;1030054;28;20105;-69
2022/07/29 01:04:56;;;;;;;8.38;7.53;;;;;;;16.16;100.00;95813.72;1030299;28;20034;-68
2022/07/29 01:05:27;;;;;;;9.77;6.75;;;;;;;16.19;100.00;95821.03;1027421;28;20463;-66
2022/07/29 01:05:58;;;;;;;10.38;7.85;;;;;;;16.14;100.00;95805.28;1030397;28;20015;-68
2022/07/29 01:06:28;;;;;;;8.43;7.47;;;;;;;16.20;100.00;95816.56;1026117;28;20035;-68
2022/07/29 01:07:00;;;;;;;9.10;7.10;;;;;;;16.20;100.00;95814.69;1026307;28;20099;-67
2022/07/29 01:07:31;;;;;;;9.32;7.03;;;;;;;16.09;100.00;95786.84;1025947;28;20035;-69
2022/07/29 01:08:02;;;;;;;7.95;6.55;;;;;;;16.17;100.00;95803.91;1022659;28;20493;-68
2022/07/29 01:08:32;;;;;;;8.02;7.25;;;;;;;16.24;100.00;95818.31;1022250;29;20074;-67
2022/07/29 01:09:03;;;;;;;8.93;6.68;;;;;;;16.26;100.00;95818.00;1018339;29;20445;-68
2022/07/29 01:09:34;;;;;;;8.85;6.90;;;;;;;16.21;100.00;95810.94;1018132;29;20038;-67
2022/07/29 01:10:04;;;;;;;10.55;8.52;;;;;;;16.28;100.00;95821.13;1018599;28;20031;-67
2022/07/29 01:10:36;;;;;;;8.45;6.68;;;;;;;16.22;100.00;95819.66;1022342;28;20031;-67
2022/07/29 01:11:07;;;;;;;9.75;6.10;;;;;;;16.22;100.00;95817.81;1017647;29;20046;-68
2022/07/29 01:11:37;;;;;;;8.70;7.07;;;;;;;16.23;100.00;95814.09;1017990;29;20032;-68
2022/07/29 01:12:08;;;;;;;8.35;6.93;;;;;;;16.22;100.00;95817.81;1018464;29;20042;-67
2022/07/29 01:12:38;;;;;;;7.18;6.47;;;;;;;16.17;100.00;95798.63;1018336;29;20083;-68
2022/07/29 01:13:08;;;;;;;7.10;6.40;;;;;;;16.22;100.00;95806.44;1014321;29;20055;-68
2022/07/29 01:13:39;;;;;;;9.10;7.03;;;;;;;16.24;100.00;95802.41;1022417;29;20027;-67
2022/07/29 01:14:10;;;;;;;8.35;6.10;;;;;;;16.21;100.00;95803.00;1022466;28;20785;-68
2022/07/29 01:14:40;;;;;;;10.82;7.28;;;;;;;16.25;100.00;95811.13;1022262;28;20062;-68
2022/07/29 01:15:11;;;;;;;7.97;6.68;;;;;;;16.24;100.00;95810.34;1022377;28;20043;-68
2022/07/29 01:15:47;;;;;;;8.98;7.20;;;;;;;16.22;100.00;95807.22;1026364;28;20133;-67
2022/07/29 01:16:21;;;;;;;7.63;6.88;;;;;;;16.21;100.00;95810.94;1027132;28;20102;-68
2022/07/29 01:16:55;;;;;;;9.50;7.03;;;;;;;16.13;100.00;95787.03;1030213;28;20018;-68
2022/07/29 01:17:28;;;;;;;8.18;6.72;;;;;;;16.22;100.00;95804.56;1026136;28;20042;-67
2022/07/29 01:18:07;;;;;;;7.57;6.07;;;;;;;16.22;100.00;95806.44;1030106;28;20026;-67
2022/07/29 01:18:44;;;;;;;9.88;7.60;;;;;;;16.21;100.00;95807.53;1024363;28;20027;-68
2022/07/29 01:19:29;;;;;;;7.55;6.72;;;;;;;16.20;100.00;95809.41;1022249;29;20031;-68
2022/07/29 01:20:28;;;;;;;9.10;7.15;;;;;;;16.22;100.00;95807.22;1022408;29;20106;-68
2022/07/29 01:21:25;;;;;;;10.10;6.82;;;;;;;16.20;100.00;95798.81;1026690;28;20094;-68
2022/07/29 01:21:57;;;;;;;9.27;6.80;;;;;;;16.17;100.00;95796.75;1027591;28;20058;-68
2022/07/29 01:22:34;;;;;;;9.75;7.47;;;;;;;16.23;100.00;95808.00;1030524;28;20460;-68
2022/07/29 01:23:22;;;;;;;9.63;7.63;;;;;;;16.19;100.00;95794.56;1030316;28;20034;-67
2022/07/29 01:24:07;;;;;;;12.07;7.65;;;;;;;16.23;100.00;95802.69;1030268;28;20033;-68
2022/07/29 01:25:19;;;;;;;9.25;7.63;;;;;;;16.24;100.00;95805.06;1030332;28;20078;-69
2022/07/29 01:26:26;;;;;;;7.72;6.75;;;;;;;16.23;100.00;95803.50;1026221;28;20463;-67
2022/07/29 01:27:01;;;;;;;8.88;6.90;;;;;;;16.21;100.00;95799.56;1027743;28;20089;-68
2022/07/29 01:27:52;;;;;;;7.55;6.75;;;;;;;16.24;100.00;95799.00;1034960;28;20033;-68
2022/07/29 01:28:45;;;;;;;8.02;7.07;;;;;;;16.24;100.00;95794.47;1029911;28;20026;-67
2022/07/29 01:29:24;;;;;;;8.18;7.22;;;;;;;16.20;100.00;95798.81;1028247;28;20015;-68
2022/07/29 01:29:58;;;;;;;10.60;7.20;;;;;;;16.19;100.00;95785.84;1027035;28;20034;-68
2022/07/29 01:30:29;;;;;;;9.07;7.60;;;;;;;16.22;100.00;95795.84;1026965;28;20046;-68
2022/07/29 01:30:59;;;;;;;9.57;8.57;;;;;;;16.23;100.00;95792.91;1020055;29;20513;-68
2022/07/29 01:32:15;;;;;;;9.77;8.70;;;;;;;16.23;100.00;95782.31;1018217;29;20028;-67
2022/07/29 01:32:47;;;;;;;8.38;6.82;;;;;;;16.21;100.00;95783.69;1012914;29;20490;-67
2022/07/29 01:34:08;;;;;;;17.58;8.60;;;;;;;16.21;100.00;95781.03;1024952;28;20725;-68
2022/07/29 01:34:50;;;;;;;9.18;8.18;;;;;;;16.16;100.00;95774.00;1024559;28;20163;-68
2022/07/29 01:35:23;;;;;;;10.25;8.95;;;;;;;16.24;100.00;95788.41;1025499;28;20027;-68
2022/07/29 01:35:53;;;;;;;12.15;9.90;;;;;;;16.22;100.00;95791.31;1022909;29;20051;-68
2022/07/29 01:36:45;;;;;;;11.32;7.88;;;;;;;16.23;100.00;95790.28;1021388;29;20554;-68
2022/07/29 01:37:26;;;;;;;9.73;7.45;;;;;;;16.12;100.00;95770.38;1020419;28;20023;-67
2022/07/29 01:38:09;;;;;;;9.90;8.75;;;;;;;16.27;100.00;95783.28;1018928;29;20035;-68
2022/07/29 01:38:41;;;;;;;7.72;6.90;;;;;;;16.14;100.00;95770.06;1019411;29;20110;-68
2022/07/29 01:39:23;;;;;;;8.55;7.20;;;;;;;16.24;100.00;95778.59;1022104;29;20027;-68
2022/07/29 01:39:55;;;;;;;14.18;8.60;;;;;;;16.22;100.00;95775.44;1025764;28;20122;-68
2022/07/29 01:40:52;;;;;;;13.63;9.30;;;;;;;16.25;100.00;95777.50;1026988;28;20031;-68
2022/07/29 01:41:23;;;;;;;10.13;8.35;;;;;;;16.23;100.00;95777.03;1017127;29;20649;-67
2022/07/29 01:42:10;;;;;;;9.25;8.05;;;;;;;16.17;100.00;95766.84;1014883;29;20077;-68
2022/07/29 01:42:44;;;;;;;14.48;9.82;;;;;;;16.26;100.00;95779.09;1022909;29;20119;-67
2022/07/29 01:43:17;;;;;;;9.68;8.00;;;;;;;16.19;100.00;95765.44;1018960;29;20032;-67
2022/07/29 01:43:56;;;;;;;9.43;8.23;;;;;;;15.56;100.00;95668.31;1018985;29;20023;-68
2022/07/29 01:44:34;;;;;;;8.63;7.45;;;;;;;16.20;100.00;95767.03;1025009;28;20105;-68
2022/07/29 01:45:12;;;;;;;8.27;7.47;;;;;;;16.20;100.00;95767.03;1023080;29;20103;-67
2022/07/29 01:45:45;;;;;;;7.40;6.63;;;;;;;16.20;100.00;95772.31;1022885;28;20019;-68
2022/07/29 01:46:19;;;;;;;8.38;7.00;;;;;;;16.15;100.00;95759.19;1022766;29;20031;-68
2022/07/29 01:46:53;;;;;;;8.60;6.75;;;;;;;16.19;100.00;95775.25;1022988;29;20030;-69
2022/07/29 01:47:31;;;;;;;7.97;7.18;;;;;;;16.19;100.00;95769.97;1019873;28;20024;-67
2022/07/29 01:48:22;;;;;;;9.57;7.18;;;;;;;16.13;100.00;95766.66;1023011;29;20031;-68
2022/07/29 01:48:54;;;;;;;8.50;6.75;;;;;;;16.11;100.00;95766.16;1018934;29;20035;-69
2022/07/29 01:49:29;;;;;;;9.95;8.00;;;;;;;16.17;100.00;95775.56;1021841;29;20028;-69
2022/07/29 01:50:00;;;;;;;10.30;7.13;;;;;;;16.15;100.00;95772.41;1022931;29;20076;-68
2022/07/29 01:50:35;;;;;;;8.57;7.68;;;;;;;16.16;100.00;95768.72;1015087;29;20032;-68
2022/07/29 01:51:19;;;;;;;8.27;7.43;;;;;;;16.15;100.00;95769.78;1015818;29;20020;-67
2022/07/29 01:51:57;;;;;;;9.77;8.13;;;;;;;16.14;100.00;95773.50;1015259;29;20103;-67
2022/07/29 01:52:38;;;;;;;8.80;7.25;;;;;;;16.15;100.00;95780.34;1014196;29;20526;-67
2022/07/29 01:53:09;;;;;;;9.40;7.50;;;;;;;16.15;100.00;95772.41;1015378;29;20115;-67
2022/07/29 01:53:44;;;;;;;9.50;7.38;;;;;;;16.11;100.00;95768.81;1014952;29;20060;-68
2022/07/29 01:54:20;;;;;;;8.10;7.30;;;;;;;16.15;100.00;95775.06;1018732;29;20028;-68
2022/07/29 01:54:55;;;;;;;9.48;8.30;;;;;;;16.16;100.00;95775.84;1022773;28;20031;-67
2022/07/29 01:55:28;;;;;;;9.60;8.57;;;;;;;16.10;100.00;95764.59;1010998;29;20526;-67
2022/07/29 01:55:59;;;;;;;12.50;7.07;;;;;;;16.12;100.00;95783.59;1018747;29;20043;-69
2022/07/29 01:56:32;;;;;;;8.50;7.63;;;;;;;16.10;100.00;95777.06;1018754;29;20518;-69
2022/07/29 01:57:04;;;;;;;10.57;7.18;;;;;;;16.13;100.00;95785.19;1014919;29;20023;-68
2022/07/29 01:57:34;;;;;;;8.48;7.57;;;;;;;16.13;100.00;95787.84;1019065;29;20039;-68
2022/07/29 01:58:05;;;;;;;9.13;7.47;;;;;;;16.12;100.00;95780.94;1027039;28;20400;-68
2022/07/29 01:58:36;;;;;;;9.10;8.20;;;;;;;16.08;100.00;95779.19;1030685;28;20024;-68
2022/07/29 01:59:07;;;;;;;9.07;7.95;;;;;;;16.13;100.00;95787.84;1026963;28;20026;-68
2022/07/29 01:59:38;;;;;;;10.60;8.00;;;;;;;16.13;100.00;95787.84;1022453;28;20031;-68
2022/07/29 02:00:09;;;;;;;12.48;7.78;;;;;;;16.08;100.00;95774.69;1023223;28;20163;-68
2022/07/29 02:00:39;;;;;;;8.88;7.95;;;;;;;16.13;100.00;95779.09;1023056;28;20090;-68
2022/07/29 02:01:10;;;;;;;10.68;7.68;;;;;;;16.14;100.00;95788.63;1026425;28;20473;-68
2022/07/29 02:01:40;;;;;;;8.45;7.28;;;;;;;16.14;100.00;95783.31;1031001;28;20134;-67
2022/07/29 02:02:11;;;;;;;7.78;6.63;;;;;;;16.07;100.00;95777.66;1031043;28;20427;-68
2022/07/29 02:02:43;;;;;;;8.20;7.43;;;;;;;16.12;100.00;95791.53;1030493;28;20731;-69
2022/07/29 02:03:13;;;;;;;7.60;6.72;;;;;;;16.13;100.00;95785.19;1030632;28;20921;-68
2022/07/29 02:03:45;;;;;;;8.57;6.65;;;;;;;16.13;100.00;95787.84;1026855;28;20038;-67
2022/07/29 02:04:15;;;;;;;9.82;7.45;;;;;;;16.13;100.00;95782.53;1031034;28;20018;-68
2022/07/29 02:04:48;;;;;;;9.68;7.10;;;;;;;16.12;100.00;95773.00;1022612;29;20396;-68
2022/07/29 02:05:18;;;;;;;7.93;7.18;;;;;;;16.13;100.00;95782.53;1020920;29;20023;-68
2022/07/29 02:05:49;;;;;;;9.00;7.53;;;;;;;16.13;100.00;95779.09;1022763;29;20138;-68
2022/07/29 02:06:20;;;;;;;7.93;7.13;;;;;;;16.11;100.00;95782.03;1018871;29;20034;-67
2022/07/29 02:06:52;;;;;;;7.80;7.00;;;;;;;16.11;100.00;95773.31;1019118;29;20051;-68
2022/07/29 02:07:23;;;;;;;9.38;7.00;;;;;;;16.04;100.00;95773.72;1018854;29;20537;-67
2022/07/29 02:07:53;;;;;;;10.25;7.57;;;;;;;16.11;100.00;95783.91;1018901;29;20026;-67
2022/07/29 02:08:24;;;;;;;10.32;7.07;;;;;;;16.10;100.00;95769.91;1023039;29;20026;-67
2022/07/29 02:08:54;;;;;;;9.45;7.40;;;;;;;16.08;100.00;95773.91;1018756;29;20090;-68
2022/07/29 02:09:25;;;;;;;10.48;7.93;;;;;;;16.08;100.00;95777.34;1022954;29;20027;-68
2022/07/29 02:09:55;;;;;;;8.45;7.65;;;;;;;16.07;100.00;95762.53;1022972;29;20064;-67
2022/07/29 02:10:27;;;;;;;8.88;7.20;;;;;;;16.01;100.00;95763.72;1015025;29;20517;-69
2022/07/29 02:10:58;;;;;;;8.80;6.70;;;;;;;16.08;100.00;95779.19;1023003;29;20107;-69
2022/07/29 02:11:30;;;;;;;8.38;7.47;;;;;;;16.03;100.00;95775.59;1022174;28;20133;-68
2022/07/29 02:12:02;;;;;;;12.27;6.95;;;;;;;16.00;100.00;95768.22;1026876;28;20023;-68
2022/07/29 02:12:32;;;;;;;9.30;7.60;;;;;;;16.03;100.00;95766.88;1022990;29;20028;-67
2022/07/29 02:13:03;;;;;;;7.55;6.82;;;;;;;16.04;100.00;95771.06;1020964;28;20016;-67
2022/07/29 02:13:34;;;;;;;10.75;8.27;;;;;;;16.03;100.00;95775.59;1022896;29;20822;-68
2022/07/29 02:14:05;;;;;;;10.07;6.63;;;;;;;16.04;100.00;95773.72;1023236;28;20537;-68
2022/07/29 02:14:51;;;;;;;7.70;6.68;;;;;;;16.02;100.00;95774.00;1026965;28;20034;-68
2022/07/29 02:15:25;;;;;;;7.00;6.32;;;;;;;16.02;100.00;95771.34;1026920;28;20038;-67
2022/07/29 02:15:56;;;;;;;10.43;6.70;;;;;;;16.02;100.00;95773.22;1026913;28;20022;-68
2022/07/29 02:16:26;;;;;;;7.80;6.43;;;;;;;16.03;100.00;95766.88;1021679;29;20033;-68
2022/07/29 02:16:57;;;;;;;10.07;7.07;;;;;;;15.96;100.00;95761.97;1019536;29;20016;-67
2022/07/29 02:17:32;;;;;;;8.13;6.72;;;;;;;15.96;100.00;95764.63;1026735;28;20137;-67
2022/07/29 02:18:08;;;;;;;8.95;6.93;;;;;;;15.99;100.00;95764.00;1026991;28;20034;-70
2022/07/29 02:18:39;;;;;;;9.88;6.80;;;;;;;15.91;100.00;95753.34;1022017;29;20532;-68
2022/07/29 02:19:09;;;;;;;8.30;6.65;;;;;;;15.92;100.00;95757.53;1015191;29;20016;-68
2022/07/29 02:19:40;;;;;;;9.07;7.20;;;;;;;15.98;100.00;95769.59;1018772;29;20068;-69
2022/07/29 02:20:11;;;;;;;10.30;6.93;;;;;;;15.97;100.00;95768.03;1026837;28;20027;-68
2022/07/29 02:20:46;;;;;;;7.13;6.43;;;;;;;15.91;100.00;95759.41;1015109;29;20020;-68
2022/07/29 02:21:19;;;;;;;8.00;7.07;;;;;;;15.92;100.00;95760.19;1025962;28;20127;-67
2022/07/29 02:21:51;;;;;;;7.72;6.88;;;;;;;15.91;100.00;95753.34;1022689;28;20062;-69
2022/07/29 02:22:21;;;;;;;8.18;6.88;;;;;;;15.87;100.00;95752.38;1018908;29;20035;-68
2022/07/29 02:22:53;;;;;;;7.35;6.10;;;;;;;15.92;100.00;95760.19;1018916;29;20039;-68
2022/07/29 02:23:23;;;;;;;6.60;5.68;;;;;;;15.95;100.00;95767.53;1023328;28;20114;-68
2022/07/29 02:23:54;;;;;;;9.75;6.70;;;;;;;15.94;100.00;95758.03;1022425;28;20027;-68
2022/07/29 02:24:25;;;;;;;7.68;6.28;;;;;;;15.93;100.00;95765.22;1011023;29;20040;-68
2022/07/29 02:24:55;;;;;;;7.57;6.78;;;;;;;15.89;100.00;95750.19;1014911;29;20130;-67
2022/07/29 02:25:26;;;;;;;9.00;6.88;;;;;;;15.94;100.00;95760.69;1018630;29;20090;-69
2022/07/29 02:25:56;;;;;;;9.55;6.57;;;;;;;15.95;100.00;95754.31;1022630;28;20035;-68
2022/07/29 02:26:27;;;;;;;10.82;6.63;;;;;;;15.87;100.00;95744.44;1022776;28;20472;-68
2022/07/29 02:26:57;;;;;;;7.55;6.40;;;;;;;15.94;100.00;95755.41;1026697;28;20019;-68
2022/07/29 02:27:28;;;;;;;11.93;6.88;;;;;;;15.94;100.00;95758.81;1022697;28;20397;-68
2022/07/29 02:27:58;;;;;;;6.88;6.15;;;;;;;15.95;100.00;95759.59;1018782;29;20032;-68
2022/07/29 02:28:29;;;;;;;7.60;6.30;;;;;;;15.95;100.00;95754.31;1023282;28;20043;-67
2022/07/29 02:29:00;;;;;;;8.35;7.18;;;;;;;15.96;100.00;95758.50;1026969;28;20029;-68
2022/07/29 02:29:30;;;;;;;8.73;6.63;;;;;;;15.96;100.00;95761.97;1017702;29;20032;-68
2022/07/29 02:30:01;;;;;;;7.65;6.93;;;;;;;15.97;100.00;95754.81;1023007;29;20062;-67
2022/07/29 02:30:32;;;;;;;8.25;6.38;;;;;;;15.97;100.00;95757.47;1021058;29;20027;-67
2022/07/29 02:31:03;;;;;;;9.88;7.20;;;;;;;15.93;100.00;95751.97;1019417;29;20106;-68
2022/07/29 02:31:34;;;;;;;7.80;7.00;;;;;;;15.97;100.00;95752.94;1019118;29;20062;-67
2022/07/29 02:32:04;;;;;;;9.23;6.78;;;;;;;15.96;100.00;95759.31;1023888;28;20042;-69
2022/07/29 02:32:35;;;;;;;8.45;6.47;;;;;;;15.92;100.00;95752.25;1031380;28;20121;-66
2022/07/29 02:33:05;;;;;;;8.88;6.80;;;;;;;15.97;100.00;95754.81;1015504;29;20032;-67
2022/07/29 02:33:36;;;;;;;9.35;5.75;;;;;;;15.95;100.00;95751.66;1015448;29;20036;-67
2022/07/29 02:34:09;;;;;;;9.20;6.40;;;;;;;15.95;100.00;95757.75;1018672;29;20032;-66
2022/07/29 02:34:40;;;;;;;8.55;6.13;;;;;;;15.96;100.00;95755.88;1021972;28;20019;-66